createdAt,value
2018-04-11T00:00:15.660Z,161788.88
2018-04-11T00:02:43.211Z,161756.14
2018-04-11T00:05:10.816Z,161741.09
2018-04-11T00:07:38.379Z,161726.06
2018-04-11T00:10:05.934Z,161719.50
2018-04-11T00:12:33.507Z,161702.50
2018-04-11T00:15:01.054Z,161680.25
2018-04-11T00:17:28.641Z,161650.83
2018-04-11T00:19:56.199Z,161660.00
2018-04-11T00:22:23.802Z,161643.61
2018-04-11T00:24:51.349Z,161622.00
2018-04-11T00:27:18.906Z,161625.31
2018-04-11T00:29:46.499Z,161599.16
2018-04-11T00:32:14.053Z,161595.20
2018-04-11T00:34:41.598Z,161598.45
2018-04-11T00:37:09.202Z,161582.13
2018-04-11T00:39:36.742Z,161568.39
2018-04-11T00:42:04.304Z,161569.03
2018-04-11T00:44:31.903Z,161552.72
2018-04-11T00:46:59.441Z,161534.37
2018-04-11T00:49:26.998Z,161538.98
2018-04-11T00:51:54.583Z,161534.37
2018-04-11T00:54:22.124Z,161491.89
2018-04-11T00:56:49.698Z,161503.66
2018-04-11T00:59:17.270Z,161480.77
2018-04-11T01:01:44.812Z,161482.72
2018-04-11T01:04:12.378Z,161468.28
2018-04-11T01:06:39.927Z,161449.31
2018-04-11T01:09:07.530Z,161432.97
2018-04-11T01:11:35.082Z,161425.77
2018-04-11T01:14:02.663Z,161417.30
2018-04-11T01:16:30.239Z,161410.08
2018-04-11T01:18:57.840Z,161389.80
2018-04-11T01:21:25.382Z,161387.20
2018-04-11T01:23:52.935Z,161380.69
2018-04-11T01:26:20.833Z,161359.75
2018-04-11T01:28:48.382Z,161368.92
2018-04-11T01:31:15.934Z,161349.28
2018-04-11T01:33:43.485Z,161344.73
2018-04-11T01:36:11.030Z,161340.78
2018-04-11T01:38:38.598Z,161337.52
2018-04-11T01:41:06.146Z,161329.00
2018-04-11T01:43:34.126Z,161315.94
2018-04-11T01:46:01.671Z,161313.98
2018-04-11T01:48:29.233Z,161296.36
2018-04-11T01:50:56.843Z,161300.91
2018-04-11T01:53:24.378Z,161277.38
2018-04-11T01:55:51.932Z,161298.97
2018-04-11T01:58:19.507Z,161286.55
2018-04-11T02:00:47.051Z,161282.64
2018-04-11T02:03:14.647Z,161281.94
2018-04-11T02:05:42.194Z,161263.00
2018-04-11T02:08:09.739Z,161240.78
2018-04-11T02:10:37.312Z,161248.64
2018-04-11T02:13:04.858Z,161231.62
2018-04-11T02:15:32.479Z,161233.56
2018-04-11T02:18:00.025Z,161221.16
2018-04-11T02:20:27.576Z,161207.44
2018-04-11T02:22:55.851Z,161200.94
2018-04-11T02:25:23.383Z,161184.56
2018-04-11T02:27:50.922Z,161180.02
2018-04-11T02:30:18.482Z,161182.61
2018-04-11T02:32:46.026Z,161172.80
2018-04-11T02:35:13.594Z,161158.44
2018-04-11T02:37:41.143Z,161153.87
2018-04-11T02:40:08.735Z,161146.02
2018-04-11T02:42:36.314Z,161132.95
2018-04-11T02:45:03.853Z,161134.25
2018-04-11T02:47:31.413Z,161119.89
2018-04-11T02:49:58.964Z,161119.89
2018-04-11T02:52:26.559Z,161109.44
2018-04-11T02:54:54.109Z,161085.91
2018-04-11T02:57:21.642Z,161078.11
2018-04-11T02:59:49.246Z,161070.91
2018-04-11T03:02:16.786Z,161058.50
2018-04-11T03:04:44.330Z,161040.22
2018-04-11T03:07:11.899Z,161035.63
2018-04-11T03:09:39.815Z,161028.47
2018-04-11T03:12:07.385Z,161033.67
2018-04-11T03:14:34.945Z,161012.11
2018-04-11T03:17:02.551Z,161005.59
2018-04-11T03:19:30.094Z,161001.66
2018-04-11T03:21:57.646Z,161001.00
2018-04-11T03:24:25.225Z,160993.84
2018-04-11T03:26:52.795Z,160982.69
2018-04-11T03:29:20.817Z,160968.33
2018-04-11T03:31:48.368Z,160966.38
2018-04-11T03:34:15.940Z,160955.27
2018-04-11T03:36:43.544Z,160950.67
2018-04-11T03:39:11.121Z,160951.97
2018-04-11T03:41:38.679Z,160947.42
2018-04-11T03:44:06.250Z,160932.41
2018-04-11T03:46:33.858Z,160926.50
2018-04-11T03:49:01.401Z,160927.81
2018-04-11T03:51:28.946Z,160925.20
2018-04-11T03:53:56.544Z,160914.11
2018-04-11T03:56:24.098Z,160908.91
2018-04-11T03:58:51.646Z,160895.84
2018-04-11T04:01:19.210Z,160901.05
2018-04-11T04:03:46.748Z,160886.69
2018-04-11T04:06:14.368Z,160884.09
2018-04-11T04:08:41.914Z,160877.53
2018-04-11T04:11:09.458Z,160874.28
2018-04-11T04:13:48.771Z,160872.98
2018-04-11T04:16:28.346Z,160863.84
2018-04-11T04:19:07.935Z,160854.69
2018-04-11T04:21:35.477Z,160856.69
2018-04-11T04:24:03.022Z,160866.44
2018-04-11T04:26:30.596Z,160872.34
2018-04-11T04:28:58.146Z,160852.73
2018-04-11T04:31:25.732Z,160848.19
2018-04-11T04:33:53.327Z,160844.94
2018-04-11T04:36:20.870Z,160829.88
2018-04-11T04:38:48.410Z,160837.73
2018-04-11T04:41:16.015Z,160831.19
2018-04-11T04:43:43.553Z,160825.33
2018-04-11T04:46:11.097Z,160807.03
2018-04-11T04:48:38.692Z,160816.17
2018-04-11T04:51:06.338Z,160810.33
2018-04-11T04:53:33.887Z,160804.42
2018-04-11T04:56:01.459Z,160793.97
2018-04-11T04:58:29.029Z,160797.92
2018-04-11T05:00:56.599Z,160816.17
2018-04-11T05:03:24.137Z,160807.67
2018-04-11T05:05:51.708Z,160819.42
2018-04-11T05:08:19.307Z,160827.92
2018-04-11T05:10:46.851Z,160826.63
2018-04-11T05:13:14.417Z,160837.73
2018-04-11T05:15:42.002Z,160836.44
2018-04-11T05:18:09.563Z,160832.53
2018-04-11T05:20:37.181Z,160842.28
2018-04-11T05:23:04.735Z,160843.58
2018-04-11T05:25:32.301Z,160848.83
2018-04-11T05:27:59.879Z,160852.08
2018-04-11T05:30:27.463Z,160861.89
2018-04-11T05:32:55.031Z,160855.33
2018-04-11T05:35:22.590Z,160850.13
2018-04-11T05:37:51.326Z,160863.19
2018-04-11T05:40:18.883Z,160865.13
2018-04-11T05:42:46.443Z,160875.59
2018-04-11T05:45:14.019Z,160848.19
2018-04-11T05:47:41.579Z,160851.44
2018-04-11T05:50:09.541Z,160839.67
2018-04-11T05:52:37.088Z,160841.63
2018-04-11T05:55:04.640Z,160839.03
2018-04-11T05:57:32.250Z,160840.33
2018-04-11T05:59:59.784Z,160855.33
2018-04-11T06:02:27.321Z,160863.84
2018-04-11T06:04:54.929Z,160877.53
2018-04-11T06:07:22.477Z,160884.73
2018-04-11T06:09:50.031Z,160888.64
2018-04-11T06:12:17.608Z,160901.70
2018-04-11T06:14:45.158Z,160904.30
2018-04-11T06:17:12.754Z,160936.31
2018-04-11T06:19:40.298Z,160991.84
2018-04-11T06:22:07.852Z,161021.91
2018-04-11T06:24:35.464Z,161080.72
2018-04-11T06:27:02.997Z,161121.84
2018-04-11T06:29:30.529Z,161225.11
2018-04-11T06:31:58.119Z,161189.81
2018-04-11T06:34:25.675Z,161241.44
2018-04-11T06:36:53.232Z,161269.52
2018-04-11T06:39:20.798Z,161166.28
2018-04-11T06:41:48.344Z,161186.56
2018-04-11T06:44:16.249Z,161206.78
2018-04-11T06:46:43.815Z,161191.13
2018-04-11T06:49:11.355Z,161188.52
2018-04-11T06:51:38.987Z,161205.48
2018-04-11T06:54:06.613Z,161212.05
2018-04-11T06:56:34.144Z,161229.02
2018-04-11T06:59:01.695Z,161262.36
2018-04-11T07:01:29.678Z,161271.53
2018-04-11T07:03:57.228Z,161264.31
2018-04-11T07:06:24.761Z,161313.33
2018-04-11T07:08:52.353Z,161275.42
2018-04-11T07:11:19.894Z,161309.42
2018-04-11T07:13:47.447Z,161329.66
2018-04-11T07:16:15.441Z,161368.92
2018-04-11T07:18:42.991Z,161412.03
2018-04-11T07:21:10.533Z,161438.19
2018-04-11T07:23:38.140Z,161445.39
2018-04-11T07:26:05.695Z,161455.88
2018-04-11T07:28:33.244Z,161474.84
2018-04-11T07:31:00.805Z,161464.33
2018-04-11T07:33:28.374Z,161504.97
2018-04-11T07:35:55.980Z,161508.88
2018-04-11T07:38:23.528Z,161529.81
2018-04-11T07:40:51.083Z,161543.53
2018-04-11T07:43:18.665Z,161586.69
2018-04-11T07:45:46.210Z,161637.09
2018-04-11T07:48:13.799Z,161676.34
2018-04-11T07:50:41.413Z,161633.13
2018-04-11T07:53:08.971Z,161686.81
2018-04-11T07:55:36.524Z,161712.97
2018-04-11T07:58:04.114Z,161711.03
2018-04-11T08:00:31.699Z,161676.98
2018-04-11T08:02:59.237Z,161689.42
2018-04-11T08:05:26.837Z,161782.36
2018-04-11T08:07:54.413Z,161739.80
2018-04-11T08:10:21.963Z,161814.39
2018-04-11T08:12:49.554Z,161826.83
2018-04-11T08:15:17.119Z,161860.22
2018-04-11T08:17:44.686Z,161930.33
2018-04-11T08:20:12.303Z,161953.91
2018-04-11T08:22:39.860Z,161952.59
2018-04-11T08:25:07.415Z,161889.06
2018-04-11T08:27:34.993Z,161965.03
2018-04-11T08:30:02.601Z,162014.14
2018-04-11T08:32:30.172Z,162097.27
2018-04-11T08:34:57.791Z,162010.83
2018-04-11T08:37:25.411Z,162075.05
2018-04-11T08:39:52.945Z,162035.06
2018-04-11T08:42:20.499Z,161970.91
2018-04-11T08:44:48.074Z,161968.30
2018-04-11T08:47:15.613Z,162028.53
2018-04-11T08:49:43.187Z,162056.69
2018-04-11T08:52:10.722Z,162039.67
2018-04-11T08:54:38.318Z,162038.38
2018-04-11T08:57:05.858Z,162027.23
2018-04-11T08:59:33.409Z,162021.31
2018-04-11T09:02:00.985Z,162016.75
2018-04-11T09:04:28.530Z,162025.94
2018-04-11T09:06:56.117Z,162109.72
2018-04-11T09:09:23.652Z,162092.06
2018-04-11T09:11:51.195Z,162123.52
2018-04-11T09:14:18.805Z,162104.50
2018-04-11T09:16:46.355Z,162142.48
2018-04-11T09:19:13.923Z,162158.19
2018-04-11T09:21:41.499Z,162213.23
2018-04-11T09:24:09.051Z,162189.66
2018-04-11T09:26:36.676Z,162166.72
2018-04-11T09:29:04.239Z,162227.64
2018-04-11T09:31:31.795Z,162256.50
2018-04-11T09:33:59.787Z,162214.55
2018-04-11T09:36:27.352Z,162085.48
2018-04-11T09:38:54.964Z,162035.06
2018-04-11T09:41:22.530Z,162070.44
2018-04-11T09:43:50.088Z,162103.84
2018-04-11T09:46:17.690Z,162165.41
2018-04-11T09:48:45.221Z,162181.78
2018-04-11T09:51:12.764Z,162236.83
2018-04-11T09:53:40.440Z,162255.20
2018-04-11T09:56:08.038Z,162239.48
2018-04-11T09:58:35.589Z,162257.86
2018-04-11T10:01:05.107Z,162301.08
2018-04-11T10:03:32.718Z,162395.47
2018-04-11T10:06:00.280Z,162457.72
2018-04-11T10:08:27.830Z,162624.34
2018-04-11T10:10:55.402Z,162537.69
2018-04-11T10:13:22.941Z,162628.91
2018-04-11T10:15:50.506Z,162860.52
2018-04-11T10:18:18.071Z,162808.00
2018-04-11T10:20:45.656Z,162636.14
2018-04-11T10:23:13.216Z,162531.81
2018-04-11T10:25:40.819Z,162399.38
2018-04-11T10:28:08.368Z,162398.08
2018-04-11T10:30:35.919Z,162358.11
2018-04-11T10:33:03.509Z,162476.70
2018-04-11T10:35:31.050Z,162457.08
2018-04-11T10:37:58.613Z,162470.19
2018-04-11T10:40:26.177Z,162518.69
2018-04-11T10:42:53.734Z,162530.50
2018-04-11T10:45:21.274Z,162580.38
2018-04-11T10:47:48.880Z,162638.75
2018-04-11T10:50:16.435Z,162627.59
2018-04-11T10:52:44.032Z,162560.64
2018-04-11T10:55:11.607Z,162628.25
2018-04-11T10:57:39.208Z,162769.25
2018-04-11T11:00:06.740Z,162718.09
2018-04-11T11:02:34.303Z,162722.06
2018-04-11T11:05:02.328Z,162882.19
2018-04-11T11:07:29.893Z,162865.09
2018-04-11T11:09:57.463Z,162772.56
2018-04-11T11:12:25.083Z,162777.14
2018-04-11T11:14:52.640Z,162808.00
2018-04-11T11:17:20.176Z,162909.08
2018-04-11T11:20:00.047Z,162967.50
2018-04-11T11:22:27.620Z,162987.81
2018-04-11T11:24:55.171Z,162886.11
2018-04-11T11:27:22.760Z,162898.58
2018-04-11T11:29:50.345Z,162923.50
2018-04-11T11:32:17.885Z,162928.08
2018-04-11T11:34:45.464Z,163037.69
2018-04-11T11:37:13.080Z,162972.73
2018-04-11T11:39:40.628Z,162910.39
2018-04-11T11:42:08.202Z,162895.95
2018-04-11T11:44:35.770Z,163029.84
2018-04-11T11:47:03.758Z,162979.97
2018-04-11T11:49:31.306Z,162958.30
2018-04-11T11:51:58.880Z,162957.64
2018-04-11T11:54:26.479Z,162878.88
2018-04-11T11:56:54.027Z,162874.30
2018-04-11T11:59:21.566Z,162785.03
2018-04-11T12:01:49.176Z,162772.56
2018-04-11T12:04:16.873Z,162751.56
2018-04-11T12:06:44.428Z,162767.94
2018-04-11T12:09:11.999Z,162844.08
2018-04-11T12:11:39.571Z,162873.64
2018-04-11T12:14:07.122Z,162937.94
2018-04-11T12:16:34.709Z,162922.20
2018-04-11T12:19:02.285Z,162898.58
2018-04-11T12:21:29.826Z,162880.88
2018-04-11T12:23:57.430Z,162932.06
2018-04-11T12:26:24.975Z,162931.41
2018-04-11T12:28:52.523Z,163013.41
2018-04-11T12:31:20.125Z,163021.30
2018-04-11T12:33:47.685Z,163075.11
2018-04-11T12:36:15.234Z,163091.56
2018-04-11T12:38:42.806Z,163144.77
2018-04-11T12:41:10.443Z,163180.89
2018-04-11T12:43:37.994Z,163283.31
2018-04-11T12:46:05.534Z,163264.95
2018-04-11T12:48:33.093Z,163258.36
2018-04-11T12:51:00.651Z,163239.34
2018-04-11T12:53:28.642Z,163261.69
2018-04-11T12:55:56.182Z,163259.72
2018-04-11T12:58:23.731Z,163293.19
2018-04-11T13:00:51.303Z,163207.80
2018-04-11T13:03:18.865Z,163249.20
2018-04-11T13:05:46.475Z,163201.91
2018-04-11T13:08:14.023Z,163215.05
2018-04-11T13:10:41.571Z,163245.88
2018-04-11T13:13:09.151Z,163224.25
2018-04-11T13:15:37.046Z,163270.84
2018-04-11T13:18:04.588Z,163303.69
2018-04-11T13:20:32.135Z,163323.42
2018-04-11T13:22:59.698Z,163333.94
2018-04-11T13:25:27.242Z,163240.00
2018-04-11T13:27:54.833Z,163210.47
2018-04-11T13:30:22.374Z,163294.48
2018-04-11T13:32:49.928Z,163286.63
2018-04-11T13:35:17.503Z,163349.03
2018-04-11T13:37:45.127Z,163282.66
2018-04-11T13:40:12.670Z,163347.06
2018-04-11T13:42:40.244Z,163333.94
2018-04-11T13:45:07.850Z,163276.13
2018-04-11T13:47:35.430Z,163310.28
2018-04-11T13:50:02.982Z,163335.91
2018-04-11T13:52:30.545Z,163317.48
2018-04-11T13:54:58.641Z,163244.58
2018-04-11T13:57:26.180Z,163215.69
2018-04-11T13:59:53.736Z,163212.44
2018-04-11T14:02:21.344Z,163182.84
2018-04-11T14:04:48.911Z,163199.95
2018-04-11T14:07:16.458Z,163232.75
2018-04-11T14:09:44.065Z,163240.00
2018-04-11T14:12:11.628Z,163190.75
2018-04-11T14:14:39.182Z,163148.69
2018-04-11T14:17:06.807Z,163159.86
2018-04-11T14:19:34.359Z,163218.97
2018-04-11T14:22:01.902Z,163199.30
2018-04-11T14:24:29.892Z,163159.86
2018-04-11T14:26:57.456Z,163221.58
2018-04-11T14:29:25.031Z,163182.19
2018-04-11T14:31:52.612Z,163184.16
2018-04-11T14:34:20.154Z,163276.78
2018-04-11T14:36:48.076Z,163227.52
2018-04-11T14:39:15.626Z,163250.52
2018-04-11T14:41:43.186Z,163207.80
2018-04-11T14:44:10.803Z,163222.94
2018-04-11T14:46:38.374Z,163251.83
2018-04-11T14:49:05.940Z,163239.34
2018-04-11T14:51:33.504Z,163243.27
2018-04-11T14:54:01.094Z,163244.58
2018-04-11T14:56:28.658Z,163169.06
2018-04-11T14:58:56.207Z,163175.66
2018-04-11T15:01:23.773Z,163210.47
2018-04-11T15:03:51.310Z,163222.94
2018-04-11T15:06:18.854Z,163225.56
2018-04-11T15:08:46.426Z,163224.91
2018-04-11T15:11:14.017Z,163189.44
2018-04-11T15:13:41.562Z,163171.03
2018-04-11T15:16:09.115Z,163155.28
2018-04-11T15:18:36.691Z,163113.89
2018-04-11T15:21:04.307Z,163144.11
2018-04-11T15:23:31.886Z,163104.69
2018-04-11T15:25:59.483Z,163167.11
2018-04-11T15:28:27.039Z,163205.19
2018-04-11T15:30:54.596Z,163241.30
2018-04-11T15:33:22.189Z,163255.09
2018-04-11T15:35:49.735Z,163220.28
2018-04-11T15:38:17.287Z,163164.48
2018-04-11T15:40:44.856Z,163199.95
2018-04-11T15:43:12.421Z,163167.75
2018-04-11T15:45:40.032Z,163216.36
2018-04-11T15:48:07.564Z,163152.66
2018-04-11T15:50:35.201Z,163146.08
2018-04-11T15:53:02.813Z,163156.59
2018-04-11T15:55:30.412Z,163163.83
2018-04-11T15:57:57.976Z,163134.86
2018-04-11T16:00:25.611Z,163127.02
2018-04-11T16:02:53.169Z,163211.78
2018-04-11T16:05:20.743Z,163192.06
2018-04-11T16:07:48.355Z,163191.41
2018-04-11T16:10:15.915Z,163175.00
2018-04-11T16:12:43.500Z,163124.39
2018-04-11T16:15:11.065Z,163136.87
2018-04-11T16:17:38.612Z,163147.39
2018-04-11T16:20:06.538Z,163148.03
2018-04-11T16:22:34.078Z,163132.25
2018-04-11T16:25:01.643Z,163123.05
2018-04-11T16:27:29.879Z,163094.83
2018-04-11T16:29:57.418Z,163095.48
2018-04-11T16:32:24.968Z,163082.34
2018-04-11T16:34:52.537Z,163122.39
2018-04-11T16:37:20.126Z,163141.50
2018-04-11T16:39:47.717Z,163100.11
2018-04-11T16:42:15.319Z,163140.19
2018-04-11T16:44:42.922Z,163141.50
2018-04-11T16:47:10.476Z,163138.89
2018-04-11T16:49:38.031Z,163102.06
2018-04-11T16:52:05.634Z,163109.91
2018-04-11T16:54:33.165Z,163123.69
2018-04-11T16:57:00.706Z,163091.56
2018-04-11T16:59:28.292Z,163111.22
2018-04-11T17:01:55.837Z,163115.19
2018-04-11T17:04:23.430Z,163094.83
2018-04-11T17:06:50.991Z,163061.98
2018-04-11T17:09:18.591Z,163057.41
2018-04-11T17:11:46.141Z,163048.86
2018-04-11T17:14:13.713Z,163086.94
2018-04-11T17:16:41.645Z,163067.92
2018-04-11T17:19:09.231Z,163038.34
2018-04-11T17:21:48.886Z,163000.28
2018-04-11T17:24:28.303Z,163020.66
2018-04-11T17:27:07.746Z,163038.34
2018-04-11T17:29:47.284Z,162984.55
2018-04-11T17:32:14.865Z,163008.19
2018-04-11T17:34:42.439Z,163012.09
2018-04-11T17:37:09.984Z,162980.63
2018-04-11T17:39:37.588Z,162957.64
2018-04-11T17:42:05.134Z,162981.94
2018-04-11T17:44:32.695Z,162933.36
2018-04-11T17:47:00.278Z,162918.94
2018-04-11T17:49:27.827Z,162936.63
2018-04-11T17:51:55.406Z,162913.00
2018-04-11T17:54:22.956Z,162921.55
2018-04-11T17:56:50.513Z,162912.34
2018-04-11T17:59:18.094Z,162891.98
2018-04-11T18:01:45.979Z,162891.34
2018-04-11T18:04:13.513Z,162868.41
2018-04-11T18:06:41.062Z,162861.17
2018-04-11T18:09:08.735Z,162797.50
2018-04-11T18:11:36.288Z,162793.52
2018-04-11T18:14:03.874Z,162767.28
2018-04-11T18:16:31.424Z,162772.56
2018-04-11T18:18:58.990Z,162740.41
2018-04-11T18:21:26.549Z,162732.52
2018-04-11T18:23:54.145Z,162757.44
2018-04-11T18:26:21.698Z,162760.75
2018-04-11T18:28:49.257Z,162756.78
2018-04-11T18:31:16.817Z,162767.28
2018-04-11T18:33:44.376Z,162769.91
2018-04-11T18:36:11.946Z,162729.25
2018-04-11T18:38:39.495Z,162720.05
2018-04-11T18:41:07.062Z,162705.63
2018-04-11T18:43:35.081Z,162659.05
2018-04-11T18:46:02.648Z,162574.45
2018-04-11T18:48:30.194Z,162547.53
2018-04-11T18:50:57.832Z,162508.86
2018-04-11T18:53:25.483Z,162472.80
2018-04-11T18:55:53.007Z,162453.81
2018-04-11T18:58:20.576Z,162410.53
2018-04-11T19:00:48.192Z,162381.05
2018-04-11T19:03:15.754Z,162333.22
2018-04-11T19:05:43.294Z,162341.69
2018-04-11T19:08:10.870Z,162320.75
2018-04-11T19:10:38.449Z,162312.88
2018-04-11T19:13:06.037Z,162310.91
2018-04-11T19:15:33.595Z,162299.78
2018-04-11T19:18:01.223Z,162302.39
2018-04-11T19:20:28.784Z,162295.20
2018-04-11T19:22:56.327Z,162265.69
2018-04-11T19:25:23.926Z,162250.62
2018-04-11T19:27:51.478Z,162212.59
2018-04-11T19:30:19.029Z,162185.73
2018-04-11T19:32:46.598Z,162162.16
2018-04-11T19:35:14.153Z,162119.55
2018-04-11T19:37:41.729Z,162097.27
2018-04-11T19:40:09.292Z,162075.05
2018-04-11T19:42:36.862Z,162048.81
2018-04-11T19:45:04.416Z,162015.44
2018-04-11T19:47:32.310Z,161991.87
2018-04-11T19:49:59.876Z,161954.55
2018-04-11T19:52:27.439Z,161920.50
2018-04-11T19:54:55.332Z,161906.75
2018-04-11T19:57:22.872Z,161873.97
2018-04-11T19:59:50.417Z,161828.13
2018-04-11T20:02:17.991Z,161833.39
2018-04-11T20:04:45.534Z,161818.34
2018-04-11T20:07:13.449Z,161795.44
2018-04-11T20:09:40.997Z,161789.53
2018-04-11T20:12:08.564Z,161776.44
2018-04-11T20:14:36.133Z,161753.53
2018-04-11T20:17:03.780Z,161750.92
2018-04-11T20:19:31.326Z,161743.70
2018-04-11T20:21:58.876Z,161726.06
2018-04-11T20:24:26.496Z,161715.58
2018-04-11T20:26:54.042Z,161705.11
2018-04-11T20:29:21.591Z,161680.25
2018-04-11T20:31:49.165Z,161653.44
2018-04-11T20:34:16.757Z,161660.66
2018-04-11T20:36:44.307Z,161654.73
2018-04-11T20:39:11.984Z,161651.48
2018-04-11T20:41:39.531Z,161618.75
2018-04-11T20:44:07.095Z,161618.75
2018-04-11T20:46:34.705Z,161598.45
2018-04-11T20:49:02.245Z,161592.59
2018-04-11T20:51:29.803Z,161572.95
2018-04-11T20:53:57.370Z,161560.53
2018-04-11T20:56:24.928Z,161541.59
2018-04-11T20:58:52.514Z,161533.06
2018-04-11T21:01:20.060Z,161532.41
2018-04-11T21:03:47.629Z,161507.56
2018-04-11T21:06:16.475Z,161491.23
2018-04-11T21:08:44.092Z,161470.25
2018-04-11T21:11:11.643Z,161447.36
2018-04-11T21:13:39.265Z,161436.23
2018-04-11T21:16:07.031Z,161440.14
2018-04-11T21:18:34.583Z,161412.03
2018-04-11T21:21:02.155Z,161412.03
2018-04-11T21:23:29.711Z,161398.97
2018-04-11T21:25:57.653Z,161376.08
2018-04-11T21:28:25.199Z,161377.38
2018-04-11T21:30:52.743Z,161372.81
2018-04-11T21:33:20.342Z,161360.41
2018-04-11T21:35:47.899Z,161349.94
2018-04-11T21:38:15.500Z,161343.44
2018-04-11T21:40:43.049Z,161335.56
2018-04-11T21:43:10.589Z,161316.59
2018-04-11T21:45:38.179Z,161314.64
2018-04-11T21:48:05.733Z,161308.12
2018-04-11T21:50:33.697Z,161295.06
2018-04-11T21:53:01.239Z,161289.80
2018-04-11T21:55:28.809Z,161287.19
2018-04-11T21:57:56.401Z,161278.03
2018-04-11T22:00:24.060Z,161281.28
2018-04-11T22:02:51.613Z,161295.06
2018-04-11T22:05:19.179Z,161300.27
2018-04-11T22:07:46.766Z,161267.56
2018-04-11T22:10:14.311Z,161268.88
2018-04-11T22:12:41.850Z,161258.45
2018-04-11T22:15:09.427Z,161240.13
2018-04-11T22:17:36.978Z,161232.92
2018-04-11T22:20:04.592Z,161221.16
2018-04-11T22:22:32.138Z,161219.20
2018-04-11T22:24:59.691Z,161208.75
2018-04-11T22:27:27.270Z,161202.23
2018-04-11T22:29:54.823Z,161211.39
2018-04-11T22:32:22.370Z,161184.56
2018-04-11T22:34:49.925Z,161171.50
2018-04-11T22:37:17.499Z,161180.02
2018-04-11T22:39:45.055Z,161174.16
2018-04-11T22:42:12.650Z,161172.16
2018-04-11T22:44:40.189Z,161151.92
2018-04-11T22:47:07.725Z,161148.67
2018-04-11T22:49:35.295Z,161146.02
2018-04-11T22:52:02.878Z,161133.61
2018-04-11T22:54:30.435Z,161121.84
2018-04-11T22:56:57.983Z,161120.55
2018-04-11T22:59:25.557Z,161102.92
2018-04-11T23:01:53.117Z,161100.33
2018-04-11T23:04:20.652Z,161080.06
2018-04-11T23:06:48.217Z,161082.02
2018-04-11T23:09:15.753Z,161068.95
2018-04-11T23:11:43.375Z,161072.20
2018-04-11T23:14:10.930Z,161059.78
2018-04-11T23:16:38.481Z,161053.28
2018-04-11T23:19:06.096Z,161042.19
2018-04-11T23:21:33.656Z,161038.22
2018-04-11T23:24:01.220Z,161025.17
2018-04-11T23:26:28.799Z,161013.41
2018-04-11T23:28:56.365Z,161024.52
2018-04-11T23:31:23.934Z,161008.84
2018-04-11T23:33:51.503Z,161006.25
2018-04-11T23:36:19.064Z,160997.75
2018-04-11T23:38:46.655Z,160990.55
2018-04-11T23:41:14.197Z,160993.19
2018-04-11T23:43:41.804Z,160987.23
2018-04-11T23:46:09.402Z,160983.98
2018-04-11T23:48:36.942Z,160976.78
2018-04-11T23:51:04.544Z,160974.83
2018-04-11T23:53:32.094Z,160965.03
2018-04-11T23:55:59.637Z,160968.33
2018-04-11T23:58:27.239Z,160961.78
